Bookmark and Share
Track history (hours):
 

Helliar

Last reported at 2014-Apr-17 09:06 UTC. Time now 2014-Apr-17 09:43 UTC.
Position N 57°09' W 002°05'.

Length 122 m; draft 5.2 m.

Type: Ship (hazmat cat A). MMSI: 235087119.

NotesDate/timePositionNaut miles runAvg speedWind from/ knotsBaromVisibWave heightAir tempDewpointWater temp
2014-Apr-17 09:06N 57°09' W 002°05'0 0.0
2014-Apr-17 08:33N 57°09' W 002°05'0 0.0
2014-Apr-17 07:33N 57°09' W 002°05'0 0.0
2014-Apr-17 06:33N 57°09' W 002°05'0 0.0
2014-Apr-15 16:32N 57°09' W 002°05'0 0.0
2014-Apr-15 11:32N 57°09' W 002°05'0 0.0
2014-Apr-15 10:32N 57°09' W 002°05'0 0.0
2014-Apr-15 09:32N 57°09' W 002°05'0 0.0
2014-Apr-15 08:32N 57°09' W 002°05'0 0.0
2014-Apr-15 07:32N 57°09' W 002°05'0 0.0
2014-Apr-15 06:32N 57°09' W 002°05'0 0.0
2014-Apr-15 05:34N 57°09' W 002°05'112 3.4
2014-Apr-13 20:28N 58°59' W 002°36'1112.2
2014-Apr-13 19:33N 59°01' W 002°58'1 0.7
2014-Apr-13 18:32N 58°60' W 002°58'0 0.0
2014-Apr-13 17:32N 58°60' W 002°58'0 0.0
2014-Apr-13 16:32N 58°60' W 002°58'0 0.0
2014-Apr-13 15:32N 58°60' W 002°58'0 0.0
2014-Apr-13 14:32N 58°60' W 002°58'0 0.0
2014-Apr-13 13:32N 58°60' W 002°58'0 0.0
2014-Apr-13 12:32N 58°60' W 002°58'0 0.0
2014-Apr-13 11:32N 58°60' W 002°58'0 0.0
2014-Apr-13 10:32N 58°60' W 002°58'0 0.0
2014-Apr-13 09:26N 58°60' W 002°58'0 0.0
2014-Apr-13 08:32N 58°60' W 002°58'0 0.0
2014-Apr-13 07:32N 58°60' W 002°58'0 0.0
2014-Apr-13 06:34N 58°60' W 002°58'7 6.7
2014-Apr-13 05:33N 58°60' W 002°45'8 7.6
2014-Apr-13 04:34N 58°55' W 002°34'6 5.5
2014-Apr-13 03:33N 58°50' W 002°38'1010.3
2014-Apr-13 02:33N 58°40' W 002°46'1111.1
2014-Apr-13 01:33N 58°30' W 002°55'54 7.7
2014-Apr-12 18:33N 57°45' W 002°00'1110.7
2014-Apr-12 17:33N 57°38' W 001°45'1414.0
2014-Apr-12 16:33N 57°24' W 001°44'1913.7
2014-Apr-12 15:12N 57°09' W 002°04'0 0.6
2014-Apr-12 14:30N 57°09' W 002°05'0 0.0
2014-Apr-12 13:33N 57°09' W 002°05'0 0.0
2014-Apr-12 12:33N 57°09' W 002°05'0 0.0
2014-Apr-12 11:30N 57°09' W 002°05'0 0.0
2014-Apr-12 10:33N 57°09' W 002°05'0 0.0
2014-Apr-12 09:33N 57°09' W 002°05'0 0.0
2014-Apr-12 08:33N 57°09' W 002°05'0 0.0
2014-Apr-12 07:33N 57°09' W 002°05'16 7.8
2014-Apr-12 05:34N 57°21' W 001°47'1312.7
2014-Apr-12 04:33N 57°33' W 001°42'1313.3
2014-Apr-12 03:33N 57°47' W 001°38'0 0.0
2014-Apr-10 19:32N 57°47' W 001°39'1414.1
2014-Apr-10 18:33N 57°33' W 001°42'1414.4
2014-Apr-10 17:33N 57°19' W 001°50'1313.3
2014-Apr-10 16:34N 57°09' W 002°05'0 0.1
2014-Apr-10 15:33N 57°09' W 002°05'0 0.0
2014-Apr-10 14:33N 57°09' W 002°05'0 0.0
2014-Apr-10 13:32N 57°09' W 002°05'0 0.0
2014-Apr-10 12:32N 57°09' W 002°05'0 0.0
2014-Apr-10 11:32N 57°09' W 002°05'0 0.0
2014-Apr-10 10:32N 57°09' W 002°05'0 0.0
2014-Apr-10 09:32N 57°09' W 002°05'12 2.8
2014-Apr-10 05:26N 57°18' W 001°51'1112.5
2014-Apr-10 04:33N 57°28' W 001°43'1313.0
2014-Apr-10 03:33N 57°40' W 001°39'1413.7
2014-Apr-10 02:33N 57°54' W 001°36'8 0.3
2014-Apr-08 20:21N 57°46' W 001°37'1113.5
2014-Apr-08 19:33N 57°35' W 001°40'1313.2
2014-Apr-08 18:33N 57°22' W 001°44'1713.8
2014-Apr-08 17:22N 57°09' W 002°03'1 1.7
2014-Apr-08 16:33N 57°09' W 002°05'0 0.0
2014-Apr-08 14:03N 57°09' W 002°05'0 0.0
2014-Apr-08 13:33N 57°09' W 002°05'0 0.0
2014-Apr-08 12:33N 57°09' W 002°05'0 0.0
2014-Apr-08 11:33N 57°09' W 002°05'0 0.0
2014-Apr-08 10:33N 57°09' W 002°05'0 0.0
2014-Apr-08 09:33N 57°09' W 002°05'0 0.0
2014-Apr-08 08:33N 57°09' W 002°05'0 0.0
2014-Apr-08 07:33N 57°09' W 002°05'0 0.0
2014-Apr-08 06:33N 57°09' W 002°05'10 9.9
2014-Apr-08 05:33N 57°16' W 001°53'1414.0
2014-Apr-08 04:34N 57°29' W 001°42'1313.5
2014-Apr-08 03:34N 57°42' W 001°39'  

Dump ship's entire track history

sailing weather and tide predictions

Helliar — 2EPP5 — position and weather